sensor_id;sensor_type;location;lat;lon;timestamp;P1;durP1;ratioP1;P2;durP2;ratioP2
63555;SDS011;49700;48.072;7.800;2024-03-29T00:00:23;6.77;;;5.10;;
63555;SDS011;49700;48.072;7.800;2024-03-29T00:02:49;6.63;;;5.90;;
63555;SDS011;49700;48.072;7.800;2024-03-29T00:05:14;8.60;;;5.10;;
63555;SDS011;49700;48.072;7.800;2024-03-29T00:07:39;8.17;;;5.50;;
63555;SDS011;49700;48.072;7.800;2024-03-29T00:10:05;9.47;;;6.03;;
63555;SDS011;49700;48.072;7.800;2024-03-29T00:12:30;8.03;;;5.53;;
63555;SDS011;49700;48.072;7.800;2024-03-29T00:14:55;6.27;;;4.53;;
63555;SDS011;49700;48.072;7.800;2024-03-29T00:17:21;7.65;;;4.05;;
63555;SDS011;49700;48.072;7.800;2024-03-29T00:19:47;3.90;;;3.60;;
63555;SDS011;49700;48.072;7.800;2024-03-29T00:22:12;4.13;;;2.80;;
63555;SDS011;49700;48.072;7.800;2024-03-29T00:24:37;3.43;;;3.13;;
63555;SDS011;49700;48.072;7.800;2024-03-29T00:27:02;7.13;;;3.10;;
63555;SDS011;49700;48.072;7.800;2024-03-29T00:29:28;2.33;;;1.80;;
63555;SDS011;49700;48.072;7.800;2024-03-29T00:31:53;3.37;;;2.23;;
63555;SDS011;49700;48.072;7.800;2024-03-29T00:34:18;1.67;;;1.20;;
63555;SDS011;49700;48.072;7.800;2024-03-29T00:36:44;2.77;;;1.57;;
63555;SDS011;49700;48.072;7.800;2024-03-29T00:39:09;2.87;;;1.57;;
63555;SDS011;49700;48.072;7.800;2024-03-29T00:41:36;3.47;;;1.35;;
63555;SDS011;49700;48.072;7.800;2024-03-29T00:44:01;1.33;;;1.23;;
63555;SDS011;49700;48.072;7.800;2024-03-29T00:46:28;2.85;;;1.67;;
63555;SDS011;49700;48.072;7.800;2024-03-29T00:48:53;2.97;;;2.67;;
63555;SDS011;49700;48.072;7.800;2024-03-29T00:51:18;2.20;;;1.67;;
63555;SDS011;49700;48.072;7.800;2024-03-29T00:53:43;4.03;;;2.63;;
63555;SDS011;49700;48.072;7.800;2024-03-29T00:56:09;1.93;;;1.63;;
63555;SDS011;49700;48.072;7.800;2024-03-29T00:58:34;3.40;;;1.40;;
63555;SDS011;49700;48.072;7.800;2024-03-29T01:00:59;3.47;;;2.80;;
63555;SDS011;49700;48.072;7.800;2024-03-29T01:03:24;4.47;;;2.40;;
63555;SDS011;49700;48.072;7.800;2024-03-29T01:05:52;3.13;;;2.13;;
63555;SDS011;49700;48.072;7.800;2024-03-29T01:08:18;3.25;;;2.50;;
63555;SDS011;49700;48.072;7.800;2024-03-29T01:10:44;2.43;;;2.23;;
63555;SDS011;49700;48.072;7.800;2024-03-29T01:13:09;6.90;;;2.53;;
63555;SDS011;49700;48.072;7.800;2024-03-29T01:15:34;2.97;;;2.60;;
63555;SDS011;49700;48.072;7.800;2024-03-29T01:18:00;4.27;;;2.23;;
63555;SDS011;49700;48.072;7.800;2024-03-29T01:20:25;4.53;;;2.47;;
63555;SDS011;49700;48.072;7.800;2024-03-29T01:22:50;5.20;;;2.80;;
63555;SDS011;49700;48.072;7.800;2024-03-29T01:25:15;3.33;;;2.53;;
63555;SDS011;49700;48.072;7.800;2024-03-29T01:27:42;3.20;;;2.35;;
63555;SDS011;49700;48.072;7.800;2024-03-29T01:30:08;4.10;;;2.60;;
63555;SDS011;49700;48.072;7.800;2024-03-29T01:32:33;2.47;;;2.27;;
63555;SDS011;49700;48.072;7.800;2024-03-29T01:34:58;2.10;;;1.87;;
63555;SDS011;49700;48.072;7.800;2024-03-29T01:37:24;3.10;;;2.40;;
63555;SDS011;49700;48.072;7.800;2024-03-29T01:39:50;4.37;;;2.50;;
63555;SDS011;49700;48.072;7.800;2024-03-29T01:42:16;2.88;;;2.00;;
63555;SDS011;49700;48.072;7.800;2024-03-29T01:44:41;4.50;;;2.20;;
63555;SDS011;49700;48.072;7.800;2024-03-29T01:47:06;3.30;;;2.13;;
63555;SDS011;49700;48.072;7.800;2024-03-29T01:49:32;4.33;;;2.10;;
63555;SDS011;49700;48.072;7.800;2024-03-29T01:51:57;1.93;;;1.50;;
63555;SDS011;49700;48.072;7.800;2024-03-29T01:54:23;2.43;;;1.77;;
63555;SDS011;49700;48.072;7.800;2024-03-29T01:56:48;4.40;;;1.93;;
63555;SDS011;49700;48.072;7.800;2024-03-29T01:59:14;2.17;;;1.63;;
63555;SDS011;49700;48.072;7.800;2024-03-29T02:01:41;3.17;;;1.20;;
63555;SDS011;49700;48.072;7.800;2024-03-29T02:04:07;2.55;;;1.55;;
63555;SDS011;49700;48.072;7.800;2024-03-29T02:06:32;3.27;;;1.20;;
63555;SDS011;49700;48.072;7.800;2024-03-29T02:08:58;1.67;;;1.40;;
63555;SDS011;49700;48.072;7.800;2024-03-29T02:11:23;2.13;;;1.30;;
63555;SDS011;49700;48.072;7.800;2024-03-29T02:13:49;2.37;;;1.60;;
63555;SDS011;49700;48.072;7.800;2024-03-29T02:16:15;1.55;;;1.10;;
63555;SDS011;49700;48.072;7.800;2024-03-29T02:18:40;1.30;;;1.20;;
63555;SDS011;49700;48.072;7.800;2024-03-29T02:21:05;1.90;;;1.70;;
63555;SDS011;49700;48.072;7.800;2024-03-29T02:23:32;1.27;;;1.17;;
63555;SDS011;49700;48.072;7.800;2024-03-29T02:25:57;2.17;;;1.30;;
63555;SDS011;49700;48.072;7.800;2024-03-29T02:28:23;2.47;;;1.57;;
63555;SDS011;49700;48.072;7.800;2024-03-29T02:30:49;1.90;;;1.67;;
63555;SDS011;49700;48.072;7.800;2024-03-29T02:33:14;1.83;;;1.33;;
63555;SDS011;49700;48.072;7.800;2024-03-29T02:35:40;1.00;;;0.90;;
63555;SDS011;49700;48.072;7.800;2024-03-29T02:38:05;1.70;;;1.60;;
63555;SDS011;49700;48.072;7.800;2024-03-29T02:40:30;2.93;;;1.40;;
63555;SDS011;49700;48.072;7.800;2024-03-29T02:42:55;1.40;;;1.30;;
63555;SDS011;49700;48.072;7.800;2024-03-29T02:45:21;1.60;;;1.50;;
63555;SDS011;49700;48.072;7.800;2024-03-29T02:47:46;1.50;;;0.90;;
63555;SDS011;49700;48.072;7.800;2024-03-29T02:50:12;1.40;;;0.93;;
63555;SDS011;49700;48.072;7.800;2024-03-29T02:52:38;1.42;;;1.30;;
63555;SDS011;49700;48.072;7.800;2024-03-29T02:55:03;3.20;;;1.90;;
63555;SDS011;49700;48.072;7.800;2024-03-29T02:57:28;2.70;;;1.50;;
63555;SDS011;49700;48.072;7.800;2024-03-29T02:59:54;1.63;;;1.30;;
63555;SDS011;49700;48.072;7.800;2024-03-29T03:02:19;1.77;;;1.17;;
63555;SDS011;49700;48.072;7.800;2024-03-29T03:04:44;3.03;;;1.50;;
63555;SDS011;49700;48.072;7.800;2024-03-29T03:07:09;1.90;;;1.23;;
63555;SDS011;49700;48.072;7.800;2024-03-29T03:09:54;1.80;;;1.10;;
63555;SDS011;49700;48.072;7.800;2024-03-29T03:12:37;2.35;;;1.40;;
63555;SDS011;49700;48.072;7.800;2024-03-29T03:15:03;3.43;;;2.77;;
63555;SDS011;49700;48.072;7.800;2024-03-29T03:17:28;1.63;;;1.20;;
63555;SDS011;49700;48.072;7.800;2024-03-29T03:19:54;3.53;;;1.63;;
63555;SDS011;49700;48.072;7.800;2024-03-29T03:22:19;2.10;;;1.63;;
63555;SDS011;49700;48.072;7.800;2024-03-29T03:24:45;3.90;;;1.30;;
63555;SDS011;49700;48.072;7.800;2024-03-29T03:27:10;2.77;;;2.17;;
63555;SDS011;49700;48.072;7.800;2024-03-29T03:29:35;5.13;;;1.60;;
63555;SDS011;49700;48.072;7.800;2024-03-29T03:32:01;1.73;;;1.40;;
63555;SDS011;49700;48.072;7.800;2024-03-29T03:34:26;2.30;;;1.53;;
63555;SDS011;49700;48.072;7.800;2024-03-29T03:36:52;2.37;;;1.43;;
63555;SDS011;49700;48.072;7.800;2024-03-29T03:39:17;3.58;;;1.40;;
63555;SDS011;49700;48.072;7.800;2024-03-29T03:41:42;4.37;;;1.60;;
63555;SDS011;49700;48.072;7.800;2024-03-29T03:44:07;3.27;;;1.57;;
63555;SDS011;49700;48.072;7.800;2024-03-29T03:46:33;2.63;;;1.50;;
63555;SDS011;49700;48.072;7.800;2024-03-29T03:48:58;4.87;;;1.60;;
63555;SDS011;49700;48.072;7.800;2024-03-29T03:51:23;1.33;;;1.17;;
63555;SDS011;49700;48.072;7.800;2024-03-29T03:53:49;3.63;;;1.37;;
63555;SDS011;49700;48.072;7.800;2024-03-29T03:56:14;1.50;;;1.40;;
63555;SDS011;49700;48.072;7.800;2024-03-29T03:58:39;2.73;;;2.07;;
63555;SDS011;49700;48.072;7.800;2024-03-29T04:01:05;1.60;;;1.50;;
63555;SDS011;49700;48.072;7.800;2024-03-29T04:03:31;1.73;;;1.63;;
63555;SDS011;49700;48.072;7.800;2024-03-29T04:05:56;1.83;;;1.33;;
63555;SDS011;49700;48.072;7.800;2024-03-29T04:08:22;3.73;;;1.70;;
63555;SDS011;49700;48.072;7.800;2024-03-29T04:10:47;2.43;;;1.33;;
63555;SDS011;49700;48.072;7.800;2024-03-29T04:13:12;1.97;;;1.50;;
63555;SDS011;49700;48.072;7.800;2024-03-29T04:15:38;1.80;;;1.10;;
63555;SDS011;49700;48.072;7.800;2024-03-29T04:18:03;2.00;;;1.67;;
63555;SDS011;49700;48.072;7.800;2024-03-29T04:20:29;1.30;;;1.20;;
63555;SDS011;49700;48.072;7.800;2024-03-29T04:22:54;3.60;;;1.53;;
63555;SDS011;49700;48.072;7.800;2024-03-29T04:25:19;1.73;;;1.40;;
63555;SDS011;49700;48.072;7.800;2024-03-29T04:27:45;1.87;;;1.47;;
63555;SDS011;49700;48.072;7.800;2024-03-29T04:30:10;1.33;;;1.03;;
63555;SDS011;49700;48.072;7.800;2024-03-29T04:32:35;1.97;;;1.57;;
63555;SDS011;49700;48.072;7.800;2024-03-29T04:35:01;6.93;;;1.00;;
63555;SDS011;49700;48.072;7.800;2024-03-29T04:37:26;5.77;;;3.73;;
63555;SDS011;49700;48.072;7.800;2024-03-29T04:39:51;3.40;;;2.80;;
63555;SDS011;49700;48.072;7.800;2024-03-29T04:42:17;3.03;;;1.83;;
63555;SDS011;49700;48.072;7.800;2024-03-29T04:44:42;1.97;;;1.30;;
63555;SDS011;49700;48.072;7.800;2024-03-29T04:47:07;3.07;;;1.60;;
63555;SDS011;49700;48.072;7.800;2024-03-29T04:49:33;2.00;;;1.70;;
63555;SDS011;49700;48.072;7.800;2024-03-29T04:52:04;3.47;;;1.90;;
63555;SDS011;49700;48.072;7.800;2024-03-29T04:54:30;2.23;;;2.00;;
63555;SDS011;49700;48.072;7.800;2024-03-29T04:56:55;1.87;;;1.70;;
63555;SDS011;49700;48.072;7.800;2024-03-29T04:59:21;2.70;;;1.73;;
63555;SDS011;49700;48.072;7.800;2024-03-29T05:01:46;2.43;;;1.73;;
63555;SDS011;49700;48.072;7.800;2024-03-29T05:04:16;1.88;;;1.20;;
63555;SDS011;49700;48.072;7.800;2024-03-29T05:06:43;2.38;;;1.40;;
63555;SDS011;49700;48.072;7.800;2024-03-29T05:09:09;4.13;;;2.00;;
63555;SDS011;49700;48.072;7.800;2024-03-29T05:11:36;2.15;;;1.70;;
63555;SDS011;49700;48.072;7.800;2024-03-29T05:14:02;5.13;;;1.50;;
63555;SDS011;49700;48.072;7.800;2024-03-29T05:16:29;2.85;;;1.60;;
63555;SDS011;49700;48.072;7.800;2024-03-29T05:18:54;2.10;;;1.10;;
63555;SDS011;49700;48.072;7.800;2024-03-29T05:21:19;1.40;;;1.30;;
63555;SDS011;49700;48.072;7.800;2024-03-29T05:23:45;2.00;;;1.80;;
63555;SDS011;49700;48.072;7.800;2024-03-29T05:26:10;2.27;;;1.73;;
63555;SDS011;49700;48.072;7.800;2024-03-29T05:28:35;6.47;;;2.13;;
63555;SDS011;49700;48.072;7.800;2024-03-29T05:31:10;4.27;;;2.03;;
63555;SDS011;49700;48.072;7.800;2024-03-29T05:33:36;4.43;;;3.25;;
63555;SDS011;49700;48.072;7.800;2024-03-29T05:36:02;4.63;;;2.72;;
63555;SDS011;49700;48.072;7.800;2024-03-29T05:38:30;4.32;;;2.90;;
63555;SDS011;49700;48.072;7.800;2024-03-29T05:40:55;4.77;;;2.83;;
63555;SDS011;49700;48.072;7.800;2024-03-29T05:43:20;4.93;;;2.33;;
63555;SDS011;49700;48.072;7.800;2024-03-29T05:45:45;7.90;;;3.00;;
63555;SDS011;49700;48.072;7.800;2024-03-29T05:48:11;5.77;;;2.70;;
63555;SDS011;49700;48.072;7.800;2024-03-29T05:50:36;1.83;;;1.57;;
63555;SDS011;49700;48.072;7.800;2024-03-29T05:53:01;3.80;;;2.23;;
63555;SDS011;49700;48.072;7.800;2024-03-29T05:55:26;2.40;;;1.73;;
63555;SDS011;49700;48.072;7.800;2024-03-29T05:57:52;2.57;;;2.20;;
63555;SDS011;49700;48.072;7.800;2024-03-29T06:00:17;4.80;;;2.70;;
63555;SDS011;49700;48.072;7.800;2024-03-29T06:02:43;3.80;;;1.93;;
63555;SDS011;49700;48.072;7.800;2024-03-29T06:05:13;5.35;;;2.97;;
63555;SDS011;49700;48.072;7.800;2024-03-29T06:07:38;3.83;;;2.70;;
63555;SDS011;49700;48.072;7.800;2024-03-29T06:10:03;3.60;;;3.27;;
63555;SDS011;49700;48.072;7.800;2024-03-29T06:12:31;2.75;;;2.53;;
63555;SDS011;49700;48.072;7.800;2024-03-29T06:14:57;3.10;;;2.30;;
63555;SDS011;49700;48.072;7.800;2024-03-29T06:17:41;8.10;;;2.58;;
63555;SDS011;49700;48.072;7.800;2024-03-29T06:20:06;1.70;;;1.60;;
63555;SDS011;49700;48.072;7.800;2024-03-29T06:22:32;2.47;;;1.60;;
63555;SDS011;49700;48.072;7.800;2024-03-29T06:24:57;2.87;;;1.40;;
63555;SDS011;49700;48.072;7.800;2024-03-29T06:27:26;3.38;;;2.75;;
63555;SDS011;49700;48.072;7.800;2024-03-29T06:29:52;2.53;;;1.55;;
63555;SDS011;49700;48.072;7.800;2024-03-29T06:32:17;4.10;;;1.50;;
63555;SDS011;49700;48.072;7.800;2024-03-29T06:34:46;2.37;;;1.70;;
63555;SDS011;49700;48.072;7.800;2024-03-29T06:37:11;2.92;;;2.00;;
63555;SDS011;49700;48.072;7.800;2024-03-29T06:39:37;3.17;;;2.13;;
63555;SDS011;49700;48.072;7.800;2024-03-29T06:42:02;3.33;;;2.80;;
63555;SDS011;49700;48.072;7.800;2024-03-29T06:44:27;3.60;;;1.83;;
63555;SDS011;49700;48.072;7.800;2024-03-29T06:46:53;2.30;;;1.60;;
63555;SDS011;49700;48.072;7.800;2024-03-29T06:49:19;1.60;;;1.20;;
63555;SDS011;49700;48.072;7.800;2024-03-29T06:51:44;2.40;;;1.70;;
63555;SDS011;49700;48.072;7.800;2024-03-29T06:54:09;1.93;;;1.77;;
63555;SDS011;49700;48.072;7.800;2024-03-29T06:56:35;2.70;;;1.50;;
63555;SDS011;49700;48.072;7.800;2024-03-29T06:59:00;11.50;;;6.47;;
63555;SDS011;49700;48.072;7.800;2024-03-29T07:01:25;4.80;;;3.70;;
63555;SDS011;49700;48.072;7.800;2024-03-29T07:03:50;3.83;;;3.40;;
63555;SDS011;49700;48.072;7.800;2024-03-29T07:06:16;4.47;;;3.90;;
63555;SDS011;49700;48.072;7.800;2024-03-29T07:08:41;6.10;;;4.37;;
63555;SDS011;49700;48.072;7.800;2024-03-29T07:11:06;7.47;;;4.17;;
63555;SDS011;49700;48.072;7.800;2024-03-29T07:13:32;3.07;;;2.70;;
63555;SDS011;49700;48.072;7.800;2024-03-29T07:16:00;4.03;;;2.87;;
63555;SDS011;49700;48.072;7.800;2024-03-29T07:18:26;4.30;;;2.10;;
63555;SDS011;49700;48.072;7.800;2024-03-29T07:20:51;5.77;;;2.60;;
63555;SDS011;49700;48.072;7.800;2024-03-29T07:23:17;6.20;;;2.10;;
63555;SDS011;49700;48.072;7.800;2024-03-29T07:25:45;2.77;;;2.57;;
63555;SDS011;49700;48.072;7.800;2024-03-29T07:28:11;1.90;;;1.73;;
63555;SDS011;49700;48.072;7.800;2024-03-29T07:30:39;4.32;;;2.80;;
63555;SDS011;49700;48.072;7.800;2024-03-29T07:33:05;9.23;;;3.00;;
63555;SDS011;49700;48.072;7.800;2024-03-29T07:35:30;4.13;;;2.30;;
63555;SDS011;49700;48.072;7.800;2024-03-29T07:37:55;4.83;;;3.40;;
63555;SDS011;49700;48.072;7.800;2024-03-29T07:40:21;4.93;;;3.85;;
63555;SDS011;49700;48.072;7.800;2024-03-29T07:42:47;5.53;;;3.70;;
63555;SDS011;49700;48.072;7.800;2024-03-29T07:45:12;5.07;;;4.40;;
63555;SDS011;49700;48.072;7.800;2024-03-29T07:47:38;9.95;;;5.88;;
63555;SDS011;49700;48.072;7.800;2024-03-29T07:50:04;10.37;;;7.53;;
63555;SDS011;49700;48.072;7.800;2024-03-29T07:52:31;5.93;;;5.43;;
63555;SDS011;49700;48.072;7.800;2024-03-29T07:54:56;7.53;;;5.77;;
63555;SDS011;49700;48.072;7.800;2024-03-29T07:57:22;6.47;;;4.10;;
63555;SDS011;49700;48.072;7.800;2024-03-29T07:59:50;6.07;;;5.47;;
63555;SDS011;49700;48.072;7.800;2024-03-29T08:02:15;3.72;;;3.40;;
63555;SDS011;49700;48.072;7.800;2024-03-29T08:04:40;6.93;;;3.60;;
63555;SDS011;49700;48.072;7.800;2024-03-29T08:07:08;6.25;;;5.05;;
63555;SDS011;49700;48.072;7.800;2024-03-29T08:09:33;10.13;;;4.47;;
63555;SDS011;49700;48.072;7.800;2024-03-29T08:11:58;5.80;;;4.00;;
63555;SDS011;49700;48.072;7.800;2024-03-29T08:14:24;3.43;;;3.07;;
63555;SDS011;49700;48.072;7.800;2024-03-29T08:16:51;7.25;;;3.97;;
63555;SDS011;49700;48.072;7.800;2024-03-29T08:19:16;3.73;;;3.00;;
63555;SDS011;49700;48.072;7.800;2024-03-29T08:21:41;5.20;;;3.60;;
63555;SDS011;49700;48.072;7.800;2024-03-29T08:24:06;9.40;;;3.77;;
63555;SDS011;49700;48.072;7.800;2024-03-29T08:26:32;3.27;;;3.07;;
63555;SDS011;49700;48.072;7.800;2024-03-29T08:28:57;3.80;;;3.37;;
63555;SDS011;49700;48.072;7.800;2024-03-29T08:31:23;5.33;;;3.07;;
63555;SDS011;49700;48.072;7.800;2024-03-29T08:33:49;5.38;;;2.40;;
63555;SDS011;49700;48.072;7.800;2024-03-29T08:36:14;7.90;;;4.70;;
63555;SDS011;49700;48.072;7.800;2024-03-29T08:38:40;4.20;;;3.23;;
63555;SDS011;49700;48.072;7.800;2024-03-29T08:41:08;5.10;;;3.90;;
63555;SDS011;49700;48.072;7.800;2024-03-29T08:43:34;5.63;;;3.70;;
63555;SDS011;49700;48.072;7.800;2024-03-29T08:45:59;5.73;;;4.07;;
63555;SDS011;49700;48.072;7.800;2024-03-29T08:48:26;4.47;;;3.70;;
63555;SDS011;49700;48.072;7.800;2024-03-29T08:50:51;5.38;;;4.25;;
63555;SDS011;49700;48.072;7.800;2024-03-29T08:53:16;5.43;;;3.93;;
63555;SDS011;49700;48.072;7.800;2024-03-29T08:55:42;4.57;;;4.17;;
63555;SDS011;49700;48.072;7.800;2024-03-29T08:58:07;6.93;;;4.90;;
63555;SDS011;49700;48.072;7.800;2024-03-29T09:00:32;3.97;;;3.60;;
63555;SDS011;49700;48.072;7.800;2024-03-29T09:02:58;10.47;;;5.17;;
63555;SDS011;49700;48.072;7.800;2024-03-29T09:05:23;12.60;;;7.77;;
63555;SDS011;49700;48.072;7.800;2024-03-29T09:07:49;10.70;;;9.37;;
63555;SDS011;49700;48.072;7.800;2024-03-29T09:10:15;15.90;;;11.20;;
63555;SDS011;49700;48.072;7.800;2024-03-29T09:12:40;12.50;;;10.20;;
63555;SDS011;49700;48.072;7.800;2024-03-29T09:15:06;16.73;;;9.30;;
63555;SDS011;49700;48.072;7.800;2024-03-29T09:17:34;8.48;;;6.93;;
63555;SDS011;49700;48.072;7.800;2024-03-29T09:19:59;9.37;;;6.90;;
63555;SDS011;49700;48.072;7.800;2024-03-29T09:22:24;9.40;;;7.80;;
63555;SDS011;49700;48.072;7.800;2024-03-29T09:24:50;8.37;;;7.57;;
63555;SDS011;49700;48.072;7.800;2024-03-29T09:27:15;10.80;;;6.20;;
63555;SDS011;49700;48.072;7.800;2024-03-29T09:29:40;6.93;;;6.27;;
63555;SDS011;49700;48.072;7.800;2024-03-29T09:32:06;9.50;;;6.27;;
63555;SDS011;49700;48.072;7.800;2024-03-29T09:34:31;8.30;;;6.63;;
63555;SDS011;49700;48.072;7.800;2024-03-29T09:36:56;8.53;;;7.27;;
63555;SDS011;49700;48.072;7.800;2024-03-29T09:39:22;8.83;;;8.13;;
63555;SDS011;49700;48.072;7.800;2024-03-29T09:41:48;9.10;;;7.13;;
63555;SDS011;49700;48.072;7.800;2024-03-29T09:44:14;7.68;;;6.90;;
63555;SDS011;49700;48.072;7.800;2024-03-29T09:46:40;7.20;;;5.38;;
63555;SDS011;49700;48.072;7.800;2024-03-29T09:49:06;5.07;;;4.03;;
63555;SDS011;49700;48.072;7.800;2024-03-29T09:51:32;4.57;;;3.50;;
63555;SDS011;49700;48.072;7.800;2024-03-29T09:53:59;3.13;;;2.70;;
63555;SDS011;49700;48.072;7.800;2024-03-29T09:56:27;7.47;;;2.40;;
63555;SDS011;49700;48.072;7.800;2024-03-29T09:58:52;4.13;;;2.50;;
63555;SDS011;49700;48.072;7.800;2024-03-29T10:01:18;2.70;;;2.47;;
63555;SDS011;49700;48.072;7.800;2024-03-29T10:03:44;3.90;;;2.87;;
63555;SDS011;49700;48.072;7.800;2024-03-29T10:06:10;3.15;;;2.53;;
63555;SDS011;49700;48.072;7.800;2024-03-29T10:08:39;3.75;;;2.00;;
63555;SDS011;49700;48.072;7.800;2024-03-29T10:11:05;2.63;;;2.20;;
63555;SDS011;49700;48.072;7.800;2024-03-29T10:13:30;3.40;;;1.93;;
63555;SDS011;49700;48.072;7.800;2024-03-29T10:15:56;2.37;;;1.60;;
63555;SDS011;49700;48.072;7.800;2024-03-29T10:18:22;1.60;;;1.50;;
63555;SDS011;49700;48.072;7.800;2024-03-29T10:20:57;2.03;;;1.48;;
63555;SDS011;49700;48.072;7.800;2024-03-29T10:23:23;2.05;;;1.75;;
63555;SDS011;49700;48.072;7.800;2024-03-29T10:25:49;2.55;;;1.35;;
63555;SDS011;49700;48.072;7.800;2024-03-29T10:28:15;2.33;;;1.73;;
63555;SDS011;49700;48.072;7.800;2024-03-29T10:30:40;2.20;;;1.43;;
63555;SDS011;49700;48.072;7.800;2024-03-29T10:33:06;1.40;;;1.30;;
63555;SDS011;49700;48.072;7.800;2024-03-29T10:35:31;2.00;;;1.27;;
63555;SDS011;49700;48.072;7.800;2024-03-29T10:37:56;5.33;;;1.70;;
63555;SDS011;49700;48.072;7.800;2024-03-29T10:40:22;2.03;;;1.30;;
63555;SDS011;49700;48.072;7.800;2024-03-29T10:42:49;1.42;;;1.33;;
63555;SDS011;49700;48.072;7.800;2024-03-29T10:45:15;2.63;;;1.37;;
63555;SDS011;49700;48.072;7.800;2024-03-29T10:47:42;1.65;;;1.00;;
63555;SDS011;49700;48.072;7.800;2024-03-29T10:50:12;1.40;;;1.02;;
63555;SDS011;49700;48.072;7.800;2024-03-29T10:52:39;3.80;;;1.20;;
63555;SDS011;49700;48.072;7.800;2024-03-29T10:55:04;4.28;;;1.38;;
63555;SDS011;49700;48.072;7.800;2024-03-29T10:57:29;7.63;;;1.30;;
63555;SDS011;49700;48.072;7.800;2024-03-29T11:00:08;1.33;;;1.00;;
63555;SDS011;49700;48.072;7.800;2024-03-29T11:05:05;1.30;;;1.03;;
63555;SDS011;49700;48.072;7.800;2024-03-29T11:07:31;2.07;;;1.40;;
63555;SDS011;49700;48.072;7.800;2024-03-29T11:10:00;2.45;;;1.42;;
63555;SDS011;49700;48.072;7.800;2024-03-29T11:12:26;4.63;;;2.05;;
63555;SDS011;49700;48.072;7.800;2024-03-29T11:14:58;1.43;;;1.00;;
63555;SDS011;49700;48.072;7.800;2024-03-29T11:17:28;3.17;;;1.53;;
63555;SDS011;49700;48.072;7.800;2024-03-29T11:19:54;2.63;;;1.53;;
63555;SDS011;49700;48.072;7.800;2024-03-29T11:22:19;2.00;;;1.67;;
63555;SDS011;49700;48.072;7.800;2024-03-29T11:24:44;1.20;;;1.10;;
63555;SDS011;49700;48.072;7.800;2024-03-29T11:27:10;1.70;;;1.60;;
63555;SDS011;49700;48.072;7.800;2024-03-29T11:29:35;5.60;;;2.30;;
63555;SDS011;49700;48.072;7.800;2024-03-29T11:32:05;1.83;;;1.10;;
63555;SDS011;49700;48.072;7.800;2024-03-29T11:34:31;1.80;;;1.13;;
63555;SDS011;49700;48.072;7.800;2024-03-29T11:37:06;1.67;;;1.40;;
63555;SDS011;49700;48.072;7.800;2024-03-29T11:39:33;2.37;;;1.10;;
63555;SDS011;49700;48.072;7.800;2024-03-29T11:41:58;2.20;;;1.23;;
63555;SDS011;49700;48.072;7.800;2024-03-29T11:44:25;1.07;;;0.90;;
63555;SDS011;49700;48.072;7.800;2024-03-29T11:46:51;1.10;;;1.00;;
63555;SDS011;49700;48.072;7.800;2024-03-29T11:49:16;1.83;;;1.00;;
63555;SDS011;49700;48.072;7.800;2024-03-29T11:51:42;1.30;;;1.10;;
63555;SDS011;49700;48.072;7.800;2024-03-29T11:54:08;1.00;;;0.90;;
63555;SDS011;49700;48.072;7.800;2024-03-29T11:56:33;0.93;;;0.73;;
63555;SDS011;49700;48.072;7.800;2024-03-29T11:58:58;3.93;;;1.53;;
63555;SDS011;49700;48.072;7.800;2024-03-29T12:01:28;1.40;;;1.20;;
63555;SDS011;49700;48.072;7.800;2024-03-29T12:03:54;2.83;;;1.37;;
63555;SDS011;49700;48.072;7.800;2024-03-29T12:06:19;1.73;;;1.10;;
63555;SDS011;49700;48.072;7.800;2024-03-29T12:08:45;1.63;;;0.97;;
63555;SDS011;49700;48.072;7.800;2024-03-29T12:11:10;3.13;;;1.00;;
63555;SDS011;49700;48.072;7.800;2024-03-29T12:13:36;1.50;;;0.97;;
63555;SDS011;49700;48.072;7.800;2024-03-29T12:16:01;1.87;;;1.10;;
63555;SDS011;49700;48.072;7.800;2024-03-29T12:18:28;3.97;;;1.13;;
63555;SDS011;49700;48.072;7.800;2024-03-29T12:20:56;1.30;;;1.17;;
63555;SDS011;49700;48.072;7.800;2024-03-29T12:23:22;1.50;;;1.03;;
63555;SDS011;49700;48.072;7.800;2024-03-29T12:25:48;1.27;;;1.00;;
63555;SDS011;49700;48.072;7.800;2024-03-29T12:28:14;2.27;;;1.07;;
63555;SDS011;49700;48.072;7.800;2024-03-29T12:30:41;2.30;;;1.10;;
63555;SDS011;49700;48.072;7.800;2024-03-29T12:33:17;4.50;;;1.20;;
63555;SDS011;49700;48.072;7.800;2024-03-29T12:35:45;2.93;;;1.07;;
63555;SDS011;49700;48.072;7.800;2024-03-29T12:38:13;2.40;;;1.10;;
63555;SDS011;49700;48.072;7.800;2024-03-29T12:40:40;1.10;;;1.00;;
63555;SDS011;49700;48.072;7.800;2024-03-29T12:43:06;1.50;;;1.00;;
63555;SDS011;49700;48.072;7.800;2024-03-29T12:45:33;2.37;;;1.10;;
63555;SDS011;49700;48.072;7.800;2024-03-29T12:47:58;1.43;;;1.10;;
63555;SDS011;49700;48.072;7.800;2024-03-29T12:52:49;1.20;;;1.00;;
63555;SDS011;49700;48.072;7.800;2024-03-29T12:55:14;1.23;;;1.13;;
63555;SDS011;49700;48.072;7.800;2024-03-29T12:57:43;2.63;;;0.90;;
63555;SDS011;49700;48.072;7.800;2024-03-29T13:00:09;3.27;;;1.07;;
63555;SDS011;49700;48.072;7.800;2024-03-29T13:02:38;1.33;;;1.03;;
63555;SDS011;49700;48.072;7.800;2024-03-29T13:05:05;3.20;;;1.57;;
63555;SDS011;49700;48.072;7.800;2024-03-29T13:07:31;2.00;;;1.10;;
63555;SDS011;49700;48.072;7.800;2024-03-29T13:09:56;4.00;;;1.53;;
63555;SDS011;49700;48.072;7.800;2024-03-29T13:12:24;2.17;;;0.93;;
63555;SDS011;49700;48.072;7.800;2024-03-29T13:14:49;2.37;;;1.17;;
63555;SDS011;49700;48.072;7.800;2024-03-29T13:17:15;3.33;;;1.37;;
63555;SDS011;49700;48.072;7.800;2024-03-29T13:19:40;3.93;;;1.17;;
63555;SDS011;49700;48.072;7.800;2024-03-29T13:22:05;2.63;;;1.03;;
63555;SDS011;49700;48.072;7.800;2024-03-29T13:24:31;1.70;;;1.00;;
63555;SDS011;49700;48.072;7.800;2024-03-29T13:26:57;1.00;;;0.80;;
63555;SDS011;49700;48.072;7.800;2024-03-29T13:29:22;2.73;;;1.00;;
63555;SDS011;49700;48.072;7.800;2024-03-29T13:31:47;2.40;;;1.10;;
63555;SDS011;49700;48.072;7.800;2024-03-29T13:34:13;2.13;;;1.00;;
63555;SDS011;49700;48.072;7.800;2024-03-29T13:36:41;2.40;;;0.90;;
63555;SDS011;49700;48.072;7.800;2024-03-29T13:39:09;1.57;;;1.47;;
63555;SDS011;49700;48.072;7.800;2024-03-29T13:41:36;1.80;;;0.90;;
63555;SDS011;49700;48.072;7.800;2024-03-29T13:44:01;2.70;;;1.30;;
63555;SDS011;49700;48.072;7.800;2024-03-29T13:46:34;1.17;;;1.00;;
63555;SDS011;49700;48.072;7.800;2024-03-29T13:48:59;4.77;;;1.00;;
63555;SDS011;49700;48.072;7.800;2024-03-29T13:51:25;1.93;;;0.90;;
63555;SDS011;49700;48.072;7.800;2024-03-29T13:53:50;4.60;;;1.23;;
63555;SDS011;49700;48.072;7.800;2024-03-29T13:56:16;1.90;;;1.30;;
63555;SDS011;49700;48.072;7.800;2024-03-29T13:58:41;3.23;;;0.90;;
63555;SDS011;49700;48.072;7.800;2024-03-29T14:01:06;1.17;;;1.03;;
63555;SDS011;49700;48.072;7.800;2024-03-29T14:03:31;1.60;;;0.90;;
63555;SDS011;49700;48.072;7.800;2024-03-29T14:05:57;1.40;;;0.80;;
63555;SDS011;49700;48.072;7.800;2024-03-29T14:08:22;3.63;;;0.90;;
63555;SDS011;49700;48.072;7.800;2024-03-29T14:10:47;1.50;;;1.03;;
63555;SDS011;49700;48.072;7.800;2024-03-29T14:13:14;2.10;;;0.90;;
63555;SDS011;49700;48.072;7.800;2024-03-29T14:15:40;4.20;;;1.00;;
63555;SDS011;49700;48.072;7.800;2024-03-29T14:18:06;2.53;;;1.27;;
63555;SDS011;49700;48.072;7.800;2024-03-29T14:20:31;1.90;;;0.90;;
63555;SDS011;49700;48.072;7.800;2024-03-29T14:22:56;1.30;;;1.00;;
63555;SDS011;49700;48.072;7.800;2024-03-29T14:25:23;2.53;;;1.30;;
63555;SDS011;49700;48.072;7.800;2024-03-29T14:27:49;2.10;;;0.80;;
63555;SDS011;49700;48.072;7.800;2024-03-29T14:30:22;0.80;;;0.77;;
63555;SDS011;49700;48.072;7.800;2024-03-29T14:32:49;1.93;;;1.23;;
63555;SDS011;49700;48.072;7.800;2024-03-29T14:35:15;1.30;;;1.00;;
63555;SDS011;49700;48.072;7.800;2024-03-29T14:37:42;1.00;;;0.70;;
63555;SDS011;49700;48.072;7.800;2024-03-29T14:40:07;2.20;;;0.90;;
63555;SDS011;49700;48.072;7.800;2024-03-29T14:42:33;0.90;;;0.80;;
63555;SDS011;49700;48.072;7.800;2024-03-29T14:45:01;1.07;;;0.87;;